Terminal Aerodrome Forecast
Issued by NWS

Home | Current Version | Previous Version | Text Only | Print | Product List | Glossary On
Versions: 1 2 3 4 5 6 7 8 9 10 11 12 13 14 15 16
000
FTUS45 KCYS 232335
TAFLAR
TAF
KLAR 232335Z 2400/2424 23008KT P6SM VCSH SCT020 OVC035
     FM241200 31009KT 2SM -SN SCT007 OVC012
     FM241800 34012G20KT 1SM -SN SCT007 OVC012=

USA.gov is the U.S. government's official web portal to all federal, state and local government web resources and services.